Time;durP1;ratioP1;P1;durP2;ratioP2;P2;SDS_P1;SDS_P2;PMS_P1;PMS_P2;Temp;Humidity;BMP_temperature;BMP_pressure;BME280_temperature;BME280_humidity;BME280_pressure;Samples;Min_cycle;Max_cycle;Signal;HPM_P1;HPM_P2
2022/08/28 00:00:30;;;;;;;3.10;1.40;;;;;;;;;;4468686;28;20038;-66
2022/08/28 00:02:41;;;;;;;3.42;1.33;;;;;;;;;;4467370;28;20560;-65
2022/08/28 00:04:52;;;;;;;2.97;1.50;;;;;;;;;;4468674;28;20061;-65
2022/08/28 00:07:02;;;;;;;2.78;1.40;;;;;;;;;;4468960;28;20035;-66
2022/08/28 00:09:13;;;;;;;2.72;1.35;;;;;;;;;;4468122;28;20405;-66
2022/08/28 00:11:23;;;;;;;2.80;1.33;;;;;;;;;;4469232;28;20043;-66
2022/08/28 00:13:34;;;;;;;3.25;1.60;;;;;;;;;;4467835;28;20022;-66
2022/08/28 00:15:47;;;;;;;2.78;1.30;;;;;;;;;;4467767;28;20042;-65
2022/08/28 00:17:58;;;;;;;2.20;1.40;;;;;;;;;;4470705;28;20531;-65
2022/08/28 00:20:11;;;;;;;3.85;1.55;;;;;;;;;;4470102;28;20042;-66
2022/08/28 00:22:21;;;;;;;3.00;1.50;;;;;;;;;;4470834;28;20089;-66
2022/08/28 00:24:33;;;;;;;5.22;1.52;;;;;;;;;;4468478;28;20129;-66
2022/08/28 00:29:12;;;;;;;3.63;1.58;;;;;;;;;;4467230;28;20035;-66
2022/08/28 00:31:22;;;;;;;2.50;1.35;;;;;;;;;;4467360;28;20481;-66
2022/08/28 00:33:33;;;;;;;3.33;1.40;;;;;;;;;;4466768;28;20080;-65
2022/08/28 00:35:45;;;;;;;3.38;1.70;;;;;;;;;;4466799;28;20054;-66
2022/08/28 00:37:56;;;;;;;3.40;1.75;;;;;;;;;;4467776;28;20306;-65
2022/08/28 00:40:07;;;;;;;4.18;1.67;;;;;;;;;;4467600;28;20035;-66
2022/08/28 00:42:18;;;;;;;2.67;1.40;;;;;;;;;;4469040;28;20308;-65
2022/08/28 00:44:29;;;;;;;2.83;1.42;;;;;;;;;;4468868;28;20046;-66
2022/08/28 00:46:42;;;;;;;3.10;1.30;;;;;;;;;;4466163;28;20493;-66
2022/08/28 00:48:52;;;;;;;4.03;1.85;;;;;;;;;;4466154;28;21258;-66
2022/08/28 00:53:32;;;;;;;2.83;1.23;;;;;;;;;;4468595;28;20154;-66
2022/08/28 00:55:43;;;;;;;3.35;1.58;;;;;;;;;;4468650;28;20093;-66
2022/08/28 00:57:57;;;;;;;3.45;1.40;;;;;;;;;;4466145;28;20838;-66
2022/08/28 01:00:11;;;;;;;2.85;1.50;;;;;;;;;;4465765;28;20081;-65
2022/08/28 01:02:22;;;;;;;3.45;1.70;;;;;;;;;;4469581;28;20141;-65
2022/08/28 01:04:33;;;;;;;3.72;1.55;;;;;;;;;;4468084;28;20146;-66
2022/08/28 01:06:47;;;;;;;3.45;1.70;;;;;;;;;;4466343;28;20034;-66
2022/08/28 01:08:57;;;;;;;2.85;1.60;;;;;;;;;;4466973;28;20039;-66
2022/08/28 01:11:08;;;;;;;3.25;1.70;;;;;;;;;;4466188;28;20034;-62
2022/08/28 01:13:22;;;;;;;2.92;1.70;;;;;;;;;;4467999;28;20085;-66
2022/08/28 01:15:34;;;;;;;2.67;1.42;;;;;;;;;;4467762;28;20038;-65
2022/08/28 01:17:47;;;;;;;4.03;1.70;;;;;;;;;;4454097;28;20046;-65
2022/08/28 01:20:04;;;;;;;2.88;1.52;;;;;;;;;;4468991;28;20525;-65
2022/08/28 01:22:37;;;;;;;4.15;1.80;;;;;;;;;;4470977;28;20085;-66
2022/08/28 01:24:48;;;;;;;3.35;1.60;;;;;;;;;;4467080;28;20102;-65
2022/08/28 01:26:59;;;;;;;2.67;1.67;;;;;;;;;;4466999;28;21403;-66
2022/08/28 01:29:10;;;;;;;4.20;1.70;;;;;;;;;;4467344;28;20035;-66
2022/08/28 01:31:20;;;;;;;2.95;1.70;;;;;;;;;;4470134;28;20113;-65
2022/08/28 01:33:31;;;;;;;2.25;1.40;;;;;;;;;;4468878;28;20081;-66
2022/08/28 01:35:43;;;;;;;4.05;1.60;;;;;;;;;;4469515;28;20246;-66
2022/08/28 01:37:54;;;;;;;3.90;1.77;;;;;;;;;;4465978;28;20047;-66
2022/08/28 01:40:08;;;;;;;2.90;1.67;;;;;;;;;;4469976;28;20027;-66
2022/08/28 01:42:19;;;;;;;3.58;1.80;;;;;;;;;;4468401;28;20796;-65
2022/08/28 01:44:29;;;;;;;2.90;1.85;;;;;;;;;;4467966;28;20218;-66
2022/08/28 01:46:41;;;;;;;3.55;1.65;;;;;;;;;;4467620;28;20101;-65
2022/08/28 01:48:51;;;;;;;3.63;1.67;;;;;;;;;;4468585;28;20030;-65
2022/08/28 01:51:03;;;;;;;3.05;1.63;;;;;;;;;;4467828;28;20046;-65
2022/08/28 01:53:15;;;;;;;3.33;1.70;;;;;;;;;;4466503;28;20038;-66
2022/08/28 01:55:26;;;;;;;3.65;1.58;;;;;;;;;;4468852;28;20061;-65
2022/08/28 01:57:48;;;;;;;3.83;1.42;;;;;;;;;;4465789;28;20049;-68
2022/08/28 01:59:59;;;;;;;3.90;1.88;;;;;;;;;;4467807;28;20122;-66
2022/08/28 02:02:09;;;;;;;2.92;1.60;;;;;;;;;;4468711;28;20019;-67
2022/08/28 02:04:20;;;;;;;3.45;1.63;;;;;;;;;;4471297;28;20050;-66
2022/08/28 02:06:31;;;;;;;3.00;1.60;;;;;;;;;;4470858;28;20447;-65
2022/08/28 02:08:41;;;;;;;3.22;1.55;;;;;;;;;;4470498;28;20070;-65
2022/08/28 02:10:52;;;;;;;3.60;1.80;;;;;;;;;;4470963;28;20049;-65
2022/08/28 02:13:04;;;;;;;3.20;1.48;;;;;;;;;;4468907;28;20047;-66
2022/08/28 02:15:15;;;;;;;3.17;1.38;;;;;;;;;;4470902;28;20514;-66
2022/08/28 02:17:25;;;;;;;3.03;1.40;;;;;;;;;;4471065;28;20046;-65
2022/08/28 02:19:36;;;;;;;3.00;1.55;;;;;;;;;;4469216;28;20069;-65
2022/08/28 02:21:47;;;;;;;3.67;1.70;;;;;;;;;;4470250;28;20029;-65
2022/08/28 02:23:57;;;;;;;3.13;1.63;;;;;;;;;;4470935;28;20050;-66
2022/08/28 02:26:09;;;;;;;3.47;1.92;;;;;;;;;;4456763;28;20081;-65
2022/08/28 02:28:19;;;;;;;3.65;1.60;;;;;;;;;;4470536;28;20093;-66
2022/08/28 02:30:30;;;;;;;3.72;1.80;;;;;;;;;;4471040;28;20647;-66
2022/08/28 02:32:40;;;;;;;3.17;1.77;;;;;;;;;;4470224;28;20121;-66
2022/08/28 02:34:52;;;;;;;2.70;1.50;;;;;;;;;;4471659;28;21628;-66
2022/08/28 02:37:02;;;;;;;3.00;1.70;;;;;;;;;;4468953;28;21170;-66
2022/08/28 02:39:13;;;;;;;3.00;1.70;;;;;;;;;;4470549;28;20084;-66
2022/08/28 02:41:24;;;;;;;4.13;1.60;;;;;;;;;;4469396;28;20043;-66
2022/08/28 02:43:34;;;;;;;2.80;1.55;;;;;;;;;;4467698;28;21154;-66
2022/08/28 02:45:45;;;;;;;3.72;1.70;;;;;;;;;;4470343;28;20097;-65
2022/08/28 02:47:56;;;;;;;2.70;1.52;;;;;;;;;;4468365;28;20039;-66
2022/08/28 02:50:07;;;;;;;3.47;1.65;;;;;;;;;;4453558;28;20129;-65
2022/08/28 02:52:22;;;;;;;4.00;1.42;;;;;;;;;;4471702;28;20058;-65
2022/08/28 02:54:33;;;;;;;3.47;1.65;;;;;;;;;;4469049;28;20556;-66
2022/08/28 02:56:44;;;;;;;3.65;1.73;;;;;;;;;;4470584;28;20154;-66
2022/08/28 02:58:54;;;;;;;3.63;1.70;;;;;;;;;;4484007;28;20108;-66
2022/08/28 03:01:08;;;;;;;4.03;1.75;;;;;;;;;;4469328;28;20038;-66
2022/08/28 03:03:19;;;;;;;3.65;1.65;;;;;;;;;;4470885;28;20605;-66
2022/08/28 03:05:30;;;;;;;2.83;1.50;;;;;;;;;;4469601;28;20440;-65
2022/08/28 03:07:41;;;;;;;3.33;1.85;;;;;;;;;;4469955;28;20425;-65
2022/08/28 03:09:52;;;;;;;2.97;1.60;;;;;;;;;;4473157;28;20050;-66
2022/08/28 03:12:02;;;;;;;3.85;1.60;;;;;;;;;;4469001;28;20042;-65
2022/08/28 03:14:13;;;;;;;3.78;1.75;;;;;;;;;;4469257;28;20122;-66
2022/08/28 03:16:24;;;;;;;3.03;1.80;;;;;;;;;;4466985;28;20027;-66
2022/08/28 03:18:34;;;;;;;2.78;1.60;;;;;;;;;;4470661;28;20389;-65
2022/08/28 03:20:45;;;;;;;3.67;1.70;;;;;;;;;;4469674;28;20089;-66
2022/08/28 03:25:25;;;;;;;3.22;1.55;;;;;;;;;;4471018;28;20037;-66
2022/08/28 03:27:36;;;;;;;2.67;1.40;;;;;;;;;;4468107;28;20035;-65
2022/08/28 03:29:47;;;;;;;2.78;1.70;;;;;;;;;;4468054;28;20504;-66
2022/08/28 03:31:59;;;;;;;3.17;1.77;;;;;;;;;;4470490;28;20621;-66
2022/08/28 03:34:09;;;;;;;2.38;1.40;;;;;;;;;;4468057;28;20042;-66
2022/08/28 03:36:23;;;;;;;2.70;1.45;;;;;;;;;;4468729;28;20078;-66
2022/08/28 03:38:34;;;;;;;2.97;1.63;;;;;;;;;;4469643;28;20030;-65
2022/08/28 03:40:45;;;;;;;3.20;1.60;;;;;;;;;;4470930;28;20051;-66
2022/08/28 03:42:56;;;;;;;3.55;1.77;;;;;;;;;;4468818;28;20046;-67
2022/08/28 03:45:09;;;;;;;3.13;1.60;;;;;;;;;;4466321;28;20023;-65
2022/08/28 03:47:19;;;;;;;3.45;1.85;;;;;;;;;;4469146;28;20042;-66
2022/08/28 03:49:30;;;;;;;3.95;1.60;;;;;;;;;;4468665;28;20042;-65
2022/08/28 03:51:40;;;;;;;3.00;1.75;;;;;;;;;;4468190;28;20042;-65
2022/08/28 03:53:51;;;;;;;3.17;1.60;;;;;;;;;;4467945;28;20038;-66
2022/08/28 03:56:06;;;;;;;3.70;1.73;;;;;;;;;;4468802;28;20066;-66
2022/08/28 03:58:17;;;;;;;3.75;1.50;;;;;;;;;;4468294;28;20638;-66
2022/08/28 04:00:27;;;;;;;3.72;1.50;;;;;;;;;;4467656;28;20117;-65
2022/08/28 04:02:41;;;;;;;4.43;1.70;;;;;;;;;;4466763;28;20513;-66
2022/08/28 04:04:52;;;;;;;3.38;1.60;;;;;;;;;;4466835;28;20032;-66
2022/08/28 04:07:02;;;;;;;3.33;1.75;;;;;;;;;;4470500;28;20043;-66
2022/08/28 04:09:13;;;;;;;4.18;1.80;;;;;;;;;;4469696;28;20448;-66
2022/08/28 04:11:23;;;;;;;4.03;1.50;;;;;;;;;;4468983;28;20047;-66
2022/08/28 04:13:34;;;;;;;3.40;1.70;;;;;;;;;;4467523;28;20077;-66
2022/08/28 04:15:44;;;;;;;2.97;1.52;;;;;;;;;;4466744;28;20067;-66
2022/08/28 04:17:55;;;;;;;2.80;1.50;;;;;;;;;;4465182;28;20074;-65
2022/08/28 04:20:07;;;;;;;3.22;1.63;;;;;;;;;;4466702;28;20035;-66
2022/08/28 04:22:18;;;;;;;3.58;1.77;;;;;;;;;;4469238;28;20632;-66
2022/08/28 04:24:28;;;;;;;3.88;1.50;;;;;;;;;;4466312;28;20085;-67
2022/08/28 04:26:39;;;;;;;3.80;1.80;;;;;;;;;;4468348;28;20075;-66
2022/08/28 04:28:51;;;;;;;3.10;1.60;;;;;;;;;;4466129;28;20038;-66
2022/08/28 04:31:02;;;;;;;3.08;1.52;;;;;;;;;;4467867;28;20035;-66
2022/08/28 04:33:13;;;;;;;4.35;1.90;;;;;;;;;;4467696;28;20035;-67
2022/08/28 04:35:23;;;;;;;3.90;1.90;;;;;;;;;;4468877;28;20031;-66
2022/08/28 04:37:35;;;;;;;2.95;1.83;;;;;;;;;;4466658;28;20067;-66
2022/08/28 04:39:45;;;;;;;4.15;1.65;;;;;;;;;;4467613;28;20049;-66
2022/08/28 04:41:56;;;;;;;3.05;1.80;;;;;;;;;;4466268;28;20041;-66
2022/08/28 04:44:07;;;;;;;3.72;1.70;;;;;;;;;;4467199;28;20047;-65
2022/08/28 04:46:19;;;;;;;4.45;1.77;;;;;;;;;;4467765;28;20030;-65
2022/08/28 04:48:29;;;;;;;3.80;1.67;;;;;;;;;;4466959;28;20924;-65
2022/08/28 04:50:41;;;;;;;3.67;1.60;;;;;;;;;;4466616;28;20109;-65
2022/08/28 04:52:52;;;;;;;2.70;1.60;;;;;;;;;;4466378;28;20616;-64
2022/08/28 04:55:03;;;;;;;3.35;1.60;;;;;;;;;;4467279;28;20026;-66
2022/08/28 04:57:14;;;;;;;2.60;1.50;;;;;;;;;;4467523;28;20049;-65
2022/08/28 04:59:24;;;;;;;3.00;1.55;;;;;;;;;;4467434;28;20518;-66
2022/08/28 05:01:34;;;;;;;4.00;1.70;;;;;;;;;;4467072;28;20524;-67
2022/08/28 05:03:47;;;;;;;3.42;1.52;;;;;;;;;;4467475;28;20042;-65
2022/08/28 05:05:57;;;;;;;3.45;1.52;;;;;;;;;;4466725;28;20035;-66
2022/08/28 05:08:08;;;;;;;2.30;1.52;;;;;;;;;;4473050;28;20035;-65
2022/08/28 05:10:18;;;;;;;3.30;1.60;;;;;;;;;;4467577;28;20607;-65
2022/08/28 05:12:29;;;;;;;2.97;1.50;;;;;;;;;;4468661;28;20093;-68
2022/08/28 05:14:39;;;;;;;3.78;2.10;;;;;;;;;;4466800;28;20497;-65
2022/08/28 05:16:51;;;;;;;2.95;1.60;;;;;;;;;;4468653;28;20042;-66
2022/08/28 05:19:02;;;;;;;2.55;1.55;;;;;;;;;;4465965;28;20038;-66
2022/08/28 05:21:19;;;;;;;3.35;1.50;;;;;;;;;;4469838;28;20508;-65
2022/08/28 05:23:29;;;;;;;3.03;1.92;;;;;;;;;;4466563;28;20058;-66
2022/08/28 05:25:42;;;;;;;3.22;1.42;;;;;;;;;;4466877;28;20038;-65
2022/08/28 05:27:53;;;;;;;3.50;1.50;;;;;;;;;;4464865;28;20129;-65
2022/08/28 05:30:04;;;;;;;3.53;1.65;;;;;;;;;;4468330;28;20039;-65
2022/08/28 05:32:15;;;;;;;2.47;1.48;;;;;;;;;;4466265;28;20035;-66
2022/08/28 05:34:25;;;;;;;2.70;1.70;;;;;;;;;;4466090;28;20039;-65
2022/08/28 05:36:37;;;;;;;3.55;1.70;;;;;;;;;;4468955;28;20027;-66
2022/08/28 05:38:48;;;;;;;3.60;1.40;;;;;;;;;;4485010;28;20034;-66
2022/08/28 05:40:58;;;;;;;2.58;1.38;;;;;;;;;;4470401;28;20034;-65
2022/08/28 05:43:10;;;;;;;3.30;1.48;;;;;;;;;;4469604;28;20047;-65
2022/08/28 05:45:21;;;;;;;3.85;1.73;;;;;;;;;;4470335;28;20117;-66
2022/08/28 05:47:31;;;;;;;2.45;1.60;;;;;;;;;;4470030;28;20041;-66
2022/08/28 05:49:42;;;;;;;2.42;1.45;;;;;;;;;;4470431;28;20034;-65
2022/08/28 05:51:52;;;;;;;2.47;1.40;;;;;;;;;;4468972;28;20108;-66
2022/08/28 05:54:03;;;;;;;2.78;1.40;;;;;;;;;;4468760;28;20062;-66
2022/08/28 05:56:16;;;;;;;3.33;1.58;;;;;;;;;;4471057;28;20514;-65
2022/08/28 05:58:30;;;;;;;2.85;1.40;;;;;;;;;;4467163;28;20038;-65
2022/08/28 06:00:41;;;;;;;3.20;1.50;;;;;;;;;;4472392;28;20034;-68
2022/08/28 06:02:51;;;;;;;3.13;1.60;;;;;;;;;;4469410;28;20515;-68
2022/08/28 06:05:02;;;;;;;2.60;1.55;;;;;;;;;;4471085;28;20038;-67
2022/08/28 06:07:14;;;;;;;2.47;1.40;;;;;;;;;;4486463;28;20057;-67
2022/08/28 06:09:26;;;;;;;3.10;1.67;;;;;;;;;;4469639;28;20067;-68
2022/08/28 06:11:37;;;;;;;2.60;1.20;;;;;;;;;;4468230;28;20097;-68
2022/08/28 06:13:48;;;;;;;2.53;1.30;;;;;;;;;;4469290;28;21089;-68
2022/08/28 06:15:58;;;;;;;4.05;1.40;;;;;;;;;;4469127;28;20133;-68
2022/08/28 06:18:09;;;;;;;3.35;1.30;;;;;;;;;;4469206;28;20112;-68
2022/08/28 06:20:19;;;;;;;2.95;1.17;;;;;;;;;;4468155;28;20421;-68
2022/08/28 06:22:30;;;;;;;2.97;1.25;;;;;;;;;;4469811;28;20027;-68
2022/08/28 06:24:41;;;;;;;2.50;1.38;;;;;;;;;;4469345;28;20034;-68
2022/08/28 06:26:51;;;;;;;2.60;1.40;;;;;;;;;;4469543;28;20070;-68
2022/08/28 06:29:06;;;;;;;3.00;1.40;;;;;;;;;;4468673;28;20027;-68
2022/08/28 06:31:17;;;;;;;3.42;1.63;;;;;;;;;;4467797;28;20035;-68
2022/08/28 06:33:27;;;;;;;4.50;1.60;;;;;;;;;;4470020;28;20078;-68
2022/08/28 06:35:43;;;;;;;3.03;1.30;;;;;;;;;;4471563;28;20042;-68
2022/08/28 06:37:53;;;;;;;3.15;1.60;;;;;;;;;;4469419;28;20559;-68
2022/08/28 06:40:04;;;;;;;3.10;1.50;;;;;;;;;;4467774;28;20131;-68
2022/08/28 06:42:15;;;;;;;3.13;1.25;;;;;;;;;;4469565;28;20511;-67
2022/08/28 06:44:25;;;;;;;2.20;1.40;;;;;;;;;;4469384;28;20075;-68
2022/08/28 06:46:35;;;;;;;2.58;1.23;;;;;;;;;;4471476;28;20023;-68
2022/08/28 06:48:46;;;;;;;3.38;1.40;;;;;;;;;;4466334;28;20091;-68
2022/08/28 06:50:57;;;;;;;3.72;1.50;;;;;;;;;;4466051;28;20118;-69
2022/08/28 06:53:10;;;;;;;2.38;1.23;;;;;;;;;;4467229;28;20997;-70
2022/08/28 06:55:20;;;;;;;2.25;1.40;;;;;;;;;;4470148;28;20598;-66
2022/08/28 06:57:31;;;;;;;3.30;1.50;;;;;;;;;;4470767;28;20047;-69
2022/08/28 06:59:41;;;;;;;3.03;1.45;;;;;;;;;;4472668;28;20058;-68
2022/08/28 07:01:53;;;;;;;3.33;1.40;;;;;;;;;;4471533;28;20039;-68
2022/08/28 07:04:09;;;;;;;2.85;1.25;;;;;;;;;;4469959;28;20047;-68
2022/08/28 07:06:21;;;;;;;3.27;1.37;;;;;;;;;;4470966;28;20039;-65
2022/08/28 07:08:32;;;;;;;2.78;1.40;;;;;;;;;;4469583;28;20788;-65
2022/08/28 07:10:43;;;;;;;3.03;1.38;;;;;;;;;;4469409;28;20594;-65
2022/08/28 07:12:53;;;;;;;2.65;1.25;;;;;;;;;;4466949;28;20129;-66
2022/08/28 07:15:04;;;;;;;1.55;1.15;;;;;;;;;;4452742;28;20078;-65
2022/08/28 07:17:15;;;;;;;2.78;1.40;;;;;;;;;;4470395;28;20049;-65
2022/08/28 07:19:25;;;;;;;2.80;1.42;;;;;;;;;;4468578;28;20062;-65
2022/08/28 07:21:38;;;;;;;2.70;1.17;;;;;;;;;;4468182;28;20073;-66
2022/08/28 07:23:49;;;;;;;3.10;1.35;;;;;;;;;;4454144;28;20046;-65
2022/08/28 07:26:11;;;;;;;2.50;1.30;;;;;;;;;;4471541;28;20460;-65
2022/08/28 07:28:23;;;;;;;2.85;1.13;;;;;;;;;;4468122;28;20079;-66
2022/08/28 07:30:33;;;;;;;2.50;1.05;;;;;;;;;;4466636;28;20590;-66
2022/08/28 07:32:48;;;;;;;2.10;1.20;;;;;;;;;;4465384;28;20046;-66
2022/08/28 07:34:58;;;;;;;3.78;1.55;;;;;;;;;;4467618;28;20082;-65
2022/08/28 07:37:09;;;;;;;2.28;1.10;;;;;;;;;;4465331;28;20035;-66
2022/08/28 07:39:20;;;;;;;2.65;1.02;;;;;;;;;;4467661;28;20046;-66
2022/08/28 07:41:32;;;;;;;2.42;1.10;;;;;;;;;;4473149;28;20042;-66
2022/08/28 07:46:12;;;;;;;2.45;1.20;;;;;;;;;;4469909;28;20588;-66
2022/08/28 07:48:22;;;;;;;2.85;1.30;;;;;;;;;;4468221;28;20359;-66
2022/08/28 07:50:33;;;;;;;2.13;1.10;;;;;;;;;;4467823;28;20341;-66
2022/08/28 07:52:44;;;;;;;3.08;1.40;;;;;;;;;;4470946;28;20105;-66
2022/08/28 07:54:55;;;;;;;1.77;1.10;;;;;;;;;;4472388;28;20031;-66
2022/08/28 07:57:08;;;;;;;2.60;1.10;;;;;;;;;;4469027;28;20046;-66
2022/08/28 07:59:19;;;;;;;2.17;0.98;;;;;;;;;;4468077;28;20037;-66
2022/08/28 08:01:30;;;;;;;2.40;1.20;;;;;;;;;;4467467;28;20567;-65
2022/08/28 08:03:40;;;;;;;2.00;1.17;;;;;;;;;;4468934;28;20043;-66
2022/08/28 08:05:52;;;;;;;2.63;1.30;;;;;;;;;;4468542;28;20028;-66
2022/08/28 08:08:03;;;;;;;2.85;1.25;;;;;;;;;;4467968;28;20134;-66
2022/08/28 08:10:14;;;;;;;2.15;1.10;;;;;;;;;;4467008;28;20049;-66
2022/08/28 08:12:24;;;;;;;2.10;0.90;;;;;;;;;;4465175;28;20053;-65
2022/08/28 08:14:36;;;;;;;1.90;1.00;;;;;;;;;;4466792;28;20038;-66
2022/08/28 08:16:48;;;;;;;1.77;0.80;;;;;;;;;;4470251;28;20070;-66
2022/08/28 08:18:58;;;;;;;2.10;0.90;;;;;;;;;;4452117;28;20592;-66
2022/08/28 08:21:12;;;;;;;1.83;0.90;;;;;;;;;;4466668;28;20057;-66
2022/08/28 08:23:22;;;;;;;1.85;0.88;;;;;;;;;;4465961;28;20543;-66
2022/08/28 08:25:33;;;;;;;3.45;0.98;;;;;;;;;;4467083;28;20113;-66
2022/08/28 08:27:43;;;;;;;2.92;1.13;;;;;;;;;;4466925;28;20102;-66
2022/08/28 08:29:54;;;;;;;2.38;0.82;;;;;;;;;;4481439;28;20038;-66
2022/08/28 08:32:08;;;;;;;1.27;0.80;;;;;;;;;;4467391;28;20098;-65
2022/08/28 08:34:18;;;;;;;2.53;1.02;;;;;;;;;;4468697;28;20057;-66
2022/08/28 08:36:32;;;;;;;2.28;0.90;;;;;;;;;;4466022;28;20038;-66
2022/08/28 08:38:43;;;;;;;1.98;0.85;;;;;;;;;;4466159;28;20122;-66
2022/08/28 08:40:54;;;;;;;2.83;1.10;;;;;;;;;;4466482;28;20564;-66
2022/08/28 08:43:05;;;;;;;1.88;0.90;;;;;;;;;;4466481;28;20417;-65
2022/08/28 08:45:17;;;;;;;1.88;0.88;;;;;;;;;;4467482;28;20063;-65
2022/08/28 08:47:39;;;;;;;1.85;0.90;;;;;;;;;;4468433;28;20034;-66
2022/08/28 08:50:02;;;;;;;2.80;1.42;;;;;;;;;;4468280;28;20030;-65
2022/08/28 08:52:12;;;;;;;1.73;1.00;;;;;;;;;;4469994;28;21393;-66
2022/08/28 08:54:22;;;;;;;2.78;1.08;;;;;;;;;;4469155;28;20110;-66
2022/08/28 08:56:33;;;;;;;3.25;1.10;;;;;;;;;;4469406;28;20046;-66
2022/08/28 08:58:46;;;;;;;2.33;0.90;;;;;;;;;;4470387;28;20680;-66
2022/08/28 09:01:12;;;;;;;1.83;0.90;;;;;;;;;;4467277;28;20718;-66
2022/08/28 09:03:29;;;;;;;2.03;1.00;;;;;;;;;;4465459;28;20047;-66
2022/08/28 09:05:52;;;;;;;;;;;;;;;;;;4468169;28;20033;-66
2022/08/28 09:08:03;;;;;;;2.83;1.00;;;;;;;;;;4465937;28;20030;-66
2022/08/28 09:10:14;;;;;;;2.63;0.95;;;;;;;;;;4469573;28;20039;-65
2022/08/28 09:12:28;;;;;;;2.75;1.30;;;;;;;;;;4466999;28;20035;-66
2022/08/28 09:15:04;;;;;;;3.42;1.10;;;;;;;;;;4469815;28;20019;-66
2022/08/28 09:17:17;;;;;;;3.75;1.20;;;;;;;;;;4469008;28;20058;-65
2022/08/28 09:19:28;;;;;;;2.58;1.00;;;;;;;;;;4470273;28;20065;-66
2022/08/28 09:21:41;;;;;;;2.28;1.10;;;;;;;;;;4468948;28;20827;-66
2022/08/28 09:23:53;;;;;;;3.05;1.00;;;;;;;;;;4466877;28;20043;-66
2022/08/28 09:26:08;;;;;;;2.13;1.00;;;;;;;;;;4468418;28;20031;-66
2022/08/28 09:28:39;;;;;;;2.67;1.23;;;;;;;;;;4469158;28;20156;-65
2022/08/28 09:31:10;;;;;;;1.73;0.90;;;;;;;;;;4467425;28;20027;-64
2022/08/28 09:33:34;;;;;;;1.60;0.90;;;;;;;;;;4449183;28;20039;-66
2022/08/28 09:35:45;;;;;;;1.75;1.00;;;;;;;;;;4465104;28;20134;-66
2022/08/28 09:38:18;;;;;;;2.38;1.02;;;;;;;;;;4466323;28;20043;-66
2022/08/28 09:43:25;;;;;;;1.63;0.90;;;;;;;;;;4469276;28;20062;-66
2022/08/28 09:45:31;;;;;;;4.03;1.52;;;;;;;;;;4468305;28;20079;-66
2022/08/28 09:47:56;;;;;;;3.38;1.20;;;;;;;;;;4465285;28;20152;-71
2022/08/28 09:50:20;;;;;;;1.92;1.38;;;;;;;;;;4469700;28;20580;-70
2022/08/28 09:52:31;;;;;;;2.05;1.10;;;;;;;;;;4469976;28;20035;-71
2022/08/28 09:54:43;;;;;;;2.25;1.50;;;;;;;;;;4470568;28;20786;-70
2022/08/28 09:56:54;;;;;;;2.97;1.17;;;;;;;;;;4468443;28;20078;-73
2022/08/28 09:59:07;;;;;;;2.70;1.20;;;;;;;;;;4467341;28;20584;-72
2022/08/28 10:01:40;;;;;;;2.55;1.20;;;;;;;;;;4466671;28;20035;-74
2022/08/28 10:04:19;;;;;;;4.75;1.30;;;;;;;;;;4467470;28;20047;-73
2022/08/28 10:06:34;;;;;;;2.80;1.20;;;;;;;;;;4441764;28;20791;-74
2022/08/28 10:08:53;;;;;;;2.03;1.05;;;;;;;;;;4468515;28;20030;-74
2022/08/28 10:11:31;;;;;;;2.05;1.10;;;;;;;;;;4466057;28;20062;-74
2022/08/28 10:13:45;;;;;;;;;;;;;;;;;;4468271;28;20062;-74
2022/08/28 10:16:08;;;;;;;1.10;0.80;;;;;;;;;;4465551;28;20774;-70
2022/08/28 10:18:33;;;;;;;1.70;1.00;;;;;;;;;;4466458;28;20041;-73
2022/08/28 10:21:13;;;;;;;1.95;0.98;;;;;;;;;;4464985;28;20035;-73
2022/08/28 10:23:42;;;;;;;2.40;1.00;;;;;;;;;;4462859;28;20697;-73
2022/08/28 10:26:14;;;;;;;2.63;1.20;;;;;;;;;;4470359;28;20084;-73
2022/08/28 10:28:50;;;;;;;1.90;0.90;;;;;;;;;;4470917;28;20151;-73
2022/08/28 10:31:14;;;;;;;2.72;1.10;;;;;;;;;;4487313;28;20038;-74
2022/08/28 10:33:30;;;;;;;1.95;1.25;;;;;;;;;;4469091;28;20031;-74
2022/08/28 10:36:15;;;;;;;3.00;1.35;;;;;;;;;;4470879;28;20118;-74
2022/08/28 10:38:36;;;;;;;2.75;1.17;;;;;;;;;;4469106;28;20062;-74
2022/08/28 10:41:07;;;;;;;1.77;1.00;;;;;;;;;;4469335;28;20595;-74
2022/08/28 10:43:45;;;;;;;1.48;1.15;;;;;;;;;;4469970;28;20043;-74
2022/08/28 10:46:00;;;;;;;2.20;1.05;;;;;;;;;;4459514;28;20246;-74
2022/08/28 10:48:24;;;;;;;2.30;1.10;;;;;;;;;;4470754;28;20586;-72
2022/08/28 10:50:56;;;;;;;2.30;1.20;;;;;;;;;;4469802;28;20090;-74
2022/08/28 10:53:12;;;;;;;2.92;1.10;;;;;;;;;;4468451;28;20049;-71
2022/08/28 10:55:46;;;;;;;2.85;1.20;;;;;;;;;;4470374;28;20039;-70
2022/08/28 10:57:59;;;;;;;1.00;0.80;;;;;;;;;;4456815;28;20035;-70
2022/08/28 11:00:16;;;;;;;2.10;1.00;;;;;;;;;;4451604;28;20035;-70
2022/08/28 11:02:27;;;;;;;2.53;1.13;;;;;;;;;;4434966;28;20406;-70
2022/08/28 11:04:38;;;;;;;3.10;1.23;;;;;;;;;;4463990;28;20037;-70
2022/08/28 11:06:53;;;;;;;1.80;1.17;;;;;;;;;;4467700;28;20694;-70
2022/08/28 11:09:26;;;;;;;2.55;1.00;;;;;;;;;;4468724;28;20577;-70
2022/08/28 11:11:42;;;;;;;1.77;0.93;;;;;;;;;;4469263;28;20039;-71
2022/08/28 11:13:57;;;;;;;1.73;0.90;;;;;;;;;;4469899;28;20034;-71
2022/08/28 11:16:29;;;;;;;2.53;1.20;;;;;;;;;;4469288;28;20082;-71
2022/08/28 11:19:04;;;;;;;1.83;0.98;;;;;;;;;;4466779;28;20031;-71
2022/08/28 11:21:23;;;;;;;1.83;0.95;;;;;;;;;;4469961;28;20599;-71
2022/08/28 11:23:44;;;;;;;2.63;0.95;;;;;;;;;;4470428;28;20530;-71
2022/08/28 11:25:58;;;;;;;2.03;1.00;;;;;;;;;;4469953;28;20030;-71
2022/08/28 11:28:18;;;;;;;2.10;1.00;;;;;;;;;;4469390;28;20077;-70
2022/08/28 11:30:32;;;;;;;2.30;1.10;;;;;;;;;;4469375;28;20039;-72
2022/08/28 11:32:49;;;;;;;2.75;1.20;;;;;;;;;;4465728;28;20035;-71
2022/08/28 11:34:59;;;;;;;2.03;0.80;;;;;;;;;;4467301;28;20162;-71
2022/08/28 11:37:37;;;;;;;1.67;1.00;;;;;;;;;;4470223;28;20125;-68
2022/08/28 11:39:48;;;;;;;;;;;;;;;;;;4472585;28;20289;-69
2022/08/28 11:42:12;;;;;;;1.65;0.80;;;;;;;;;;4453228;28;19918;-71
2022/08/28 11:44:27;;;;;;;2.03;1.00;;;;;;;;;;4476281;28;20046;-71
2022/08/28 11:46:39;;;;;;;2.58;1.00;;;;;;;;;;4459433;28;20043;-70
2022/08/28 11:48:55;;;;;;;2.20;0.90;;;;;;;;;;4468777;28;20134;-70
2022/08/28 11:51:17;;;;;;;2.22;1.17;;;;;;;;;;4468452;28;20109;-71
2022/08/28 11:53:46;;;;;;;2.33;1.00;;;;;;;;;;4483843;28;20534;-71
2022/08/28 11:56:05;;;;;;;3.03;1.00;;;;;;;;;;4468477;28;20041;-71
2022/08/28 11:58:36;;;;;;;3.05;1.10;;;;;;;;;;4465059;28;20831;-70
2022/08/28 12:01:02;;;;;;;2.80;1.00;;;;;;;;;;4469873;28;20043;-72
2022/08/28 12:03:42;;;;;;;3.15;1.25;;;;;;;;;;4468567;28;20031;-71
2022/08/28 12:05:54;;;;;;;2.90;1.10;;;;;;;;;;4468181;28;20035;-72
2022/08/28 12:08:05;;;;;;;1.73;1.00;;;;;;;;;;4468399;28;20031;-70
2022/08/28 12:10:21;;;;;;;2.30;1.00;;;;;;;;;;4466139;28;20039;-70
2022/08/28 12:12:44;;;;;;;1.48;0.90;;;;;;;;;;4466039;28;20035;-71
2022/08/28 12:14:54;;;;;;;3.15;0.90;;;;;;;;;;4468910;28;20037;-71
2022/08/28 12:17:23;;;;;;;1.23;0.70;;;;;;;;;;4469689;28;20051;-71
2022/08/28 12:19:49;;;;;;;1.70;0.82;;;;;;;;;;4467530;28;20034;-71
2022/08/28 12:22:10;;;;;;;2.13;1.00;;;;;;;;;;4468608;28;20733;-71
2022/08/28 12:24:22;;;;;;;2.05;1.00;;;;;;;;;;4468967;28;20596;-70
2022/08/28 12:26:37;;;;;;;2.50;1.17;;;;;;;;;;4469982;28;20027;-71
2022/08/28 12:28:58;;;;;;;1.75;1.00;;;;;;;;;;4468309;28;20107;-69
2022/08/28 12:32:10;;;;;;;1.77;0.90;;;;;;;;;;4462136;28;20045;-71
2022/08/28 12:34:03;;;;;;;1.95;1.02;;;;;;;;;;4467202;28;20672;-71
2022/08/28 12:36:15;;;;;;;1.77;1.10;;;;;;;;;;4465431;28;20039;-72
2022/08/28 12:38:29;;;;;;;2.35;0.93;;;;;;;;;;4464970;28;20978;-72
2022/08/28 12:40:39;;;;;;;2.63;1.00;;;;;;;;;;4454709;28;20080;-72
2022/08/28 12:43:09;;;;;;;1.55;0.80;;;;;;;;;;4469922;28;20034;-71
2022/08/28 12:45:24;;;;;;;2.15;1.10;;;;;;;;;;4466529;28;20045;-70
2022/08/28 12:47:36;;;;;;;1.45;0.90;;;;;;;;;;4465555;28;20041;-71
2022/08/28 12:49:46;;;;;;;1.98;1.00;;;;;;;;;;4468862;28;20035;-71
2022/08/28 12:52:15;;;;;;;1.35;0.95;;;;;;;;;;4466916;28;20477;-70
2022/08/28 12:54:26;;;;;;;1.90;0.90;;;;;;;;;;4469116;28;20115;-71
2022/08/28 12:56:37;;;;;;;1.23;0.70;;;;;;;;;;4467478;28;20142;-71
2022/08/28 12:58:48;;;;;;;1.35;0.90;;;;;;;;;;4467036;28;20153;-71
2022/08/28 13:01:03;;;;;;;1.35;0.85;;;;;;;;;;4464134;28;20118;-69
2022/08/28 13:03:14;;;;;;;1.30;0.80;;;;;;;;;;4465647;28;20784;-70
2022/08/28 13:05:33;;;;;;;1.65;0.80;;;;;;;;;;4469006;28;20128;-70
2022/08/28 13:07:47;;;;;;;1.00;0.80;;;;;;;;;;4466299;28;20153;-70
2022/08/28 13:10:00;;;;;;;1.85;1.00;;;;;;;;;;4465408;28;20549;-70
2022/08/28 13:12:25;;;;;;;1.10;0.70;;;;;;;;;;4455768;28;20580;-70
2022/08/28 13:14:43;;;;;;;1.67;1.00;;;;;;;;;;4467080;28;20130;-70
2022/08/28 13:16:54;;;;;;;1.52;0.80;;;;;;;;;;4466869;28;20030;-70
2022/08/28 13:19:04;;;;;;;1.27;0.70;;;;;;;;;;4466833;28;20043;-69
2022/08/28 13:21:17;;;;;;;1.38;0.80;;;;;;;;;;4467863;28;20028;-70
2022/08/28 13:23:28;;;;;;;1.77;0.88;;;;;;;;;;4466023;28;20043;-71
2022/08/28 13:25:39;;;;;;;1.73;0.80;;;;;;;;;;4481641;28;20551;-70
2022/08/28 13:27:57;;;;;;;1.52;0.80;;;;;;;;;;4465763;28;20041;-70
2022/08/28 13:30:19;;;;;;;1.13;0.73;;;;;;;;;;4466824;28;20046;-71
2022/08/28 13:32:33;;;;;;;1.67;0.80;;;;;;;;;;4465427;28;20639;-70
2022/08/28 13:35:09;;;;;;;2.60;1.30;;;;;;;;;;4469597;28;20035;-70
2022/08/28 13:37:46;;;;;;;1.98;0.80;;;;;;;;;;4467388;28;20105;-70